sensor_id;sensor_type;location;lat;lon;timestamp;pressure;altitude;pressure_sealevel;temperature;humidity
70930;BME280;58588;48.102;19.682;2023-04-15T00:00:06;98454.81;;;6.04;100.00
70930;BME280;58588;48.102;19.682;2023-04-15T00:03:09;98448.34;;;5.99;100.00
70930;BME280;58588;48.102;19.682;2023-04-15T00:06:11;98460.16;;;6.04;100.00
70930;BME280;58588;48.102;19.682;2023-04-15T00:09:14;98461.66;;;6.07;100.00
70930;BME280;58588;48.102;19.682;2023-04-15T00:12:17;98467.16;;;6.05;100.00
70930;BME280;58588;48.102;19.682;2023-04-15T00:15:19;98470.97;;;6.11;100.00
70930;BME280;58588;48.102;19.682;2023-04-15T00:18:22;98476.06;;;6.21;100.00
70930;BME280;58588;48.102;19.682;2023-04-15T00:21:24;98468.75;;;6.29;100.00
70930;BME280;58588;48.102;19.682;2023-04-15T00:24:28;98473.59;;;6.49;100.00
70930;BME280;58588;48.102;19.682;2023-04-15T00:27:32;98473.94;;;6.46;100.00
70930;BME280;58588;48.102;19.682;2023-04-15T00:30:34;98473.28;;;6.58;100.00
70930;BME280;58588;48.102;19.682;2023-04-15T00:33:36;98468.47;;;6.68;100.00
70930;BME280;58588;48.102;19.682;2023-04-15T00:36:39;98464.59;;;6.71;100.00
70930;BME280;58588;48.102;19.682;2023-04-15T00:39:41;98462.84;;;6.63;100.00
70930;BME280;58588;48.102;19.682;2023-04-15T00:42:45;98461.75;;;6.73;100.00
70930;BME280;58588;48.102;19.682;2023-04-15T00:45:47;98464.06;;;6.61;100.00
70930;BME280;58588;48.102;19.682;2023-04-15T00:48:49;98456.66;;;6.63;100.00
70930;BME280;58588;48.102;19.682;2023-04-15T00:51:52;98466.38;;;6.49;100.00
70930;BME280;58588;48.102;19.682;2023-04-15T00:54:54;98453.72;;;6.43;100.00
70930;BME280;58588;48.102;19.682;2023-04-15T00:57:58;98449.66;;;6.32;100.00
70930;BME280;58588;48.102;19.682;2023-04-15T01:01:00;98449.75;;;6.39;100.00
70930;BME280;58588;48.102;19.682;2023-04-15T01:04:02;98454.84;;;6.49;100.00
70930;BME280;58588;48.102;19.682;2023-04-15T01:07:05;98453.34;;;6.61;100.00
70930;BME280;58588;48.102;19.682;2023-04-15T01:10:08;98454.81;;;6.78;100.00
70930;BME280;58588;48.102;19.682;2023-04-15T01:13:11;98453.22;;;6.84;100.00
70930;BME280;58588;48.102;19.682;2023-04-15T01:16:13;98454.88;;;6.85;100.00
70930;BME280;58588;48.102;19.682;2023-04-15T01:19:16;98460.25;;;6.85;100.00
70930;BME280;58588;48.102;19.682;2023-04-15T01:22:18;98461.06;;;6.85;100.00
70930;BME280;58588;48.102;19.682;2023-04-15T01:25:30;98465.28;;;6.94;100.00
70930;BME280;58588;48.102;19.682;2023-04-15T01:28:32;98471.75;;;7.00;100.00
70930;BME280;58588;48.102;19.682;2023-04-15T01:31:34;98466.81;;;6.67;100.00
70930;BME280;58588;48.102;19.682;2023-04-15T01:34:37;98471.78;;;6.70;100.00
70930;BME280;58588;48.102;19.682;2023-04-15T01:37:39;98475.97;;;6.73;100.00
70930;BME280;58588;48.102;19.682;2023-04-15T01:40:43;98472.88;;;6.91;100.00
70930;BME280;58588;48.102;19.682;2023-04-15T01:43:45;98460.53;;;6.90;100.00
70930;BME280;58588;48.102;19.682;2023-04-15T01:46:47;98468.66;;;6.82;100.00
70930;BME280;58588;48.102;19.682;2023-04-15T01:49:50;98465.97;;;6.82;100.00
70930;BME280;58588;48.102;19.682;2023-04-15T01:52:52;98475.09;;;7.02;100.00
70930;BME280;58588;48.102;19.682;2023-04-15T01:55:55;98468.28;;;7.21;100.00
70930;BME280;58588;48.102;19.682;2023-04-15T01:58:57;98471.34;;;7.18;100.00
70930;BME280;58588;48.102;19.682;2023-04-15T02:01:59;98477.16;;;7.21;100.00
70930;BME280;58588;48.102;19.682;2023-04-15T02:05:02;98471.59;;;7.23;100.00
70930;BME280;58588;48.102;19.682;2023-04-15T02:08:05;98480.25;;;7.40;100.00
70930;BME280;58588;48.102;19.682;2023-04-15T02:11:08;98470.00;;;7.29;100.00
70930;BME280;58588;48.102;19.682;2023-04-15T02:14:10;98470.13;;;7.20;100.00
70930;BME280;58588;48.102;19.682;2023-04-15T02:17:12;98466.03;;;7.24;100.00
70930;BME280;58588;48.102;19.682;2023-04-15T02:20:15;98461.44;;;7.18;100.00
70930;BME280;58588;48.102;19.682;2023-04-15T02:23:17;98462.94;;;7.21;100.00
70930;BME280;58588;48.102;19.682;2023-04-15T02:26:21;98467.19;;;7.15;100.00
70930;BME280;58588;48.102;19.682;2023-04-15T02:29:24;98461.13;;;7.28;100.00
70930;BME280;58588;48.102;19.682;2023-04-15T02:32:26;98450.94;;;7.38;100.00
70930;BME280;58588;48.102;19.682;2023-04-15T02:35:29;98452.88;;;7.44;100.00
70930;BME280;58588;48.102;19.682;2023-04-15T02:38:31;98446.66;;;7.44;100.00
70930;BME280;58588;48.102;19.682;2023-04-15T02:41:35;98439.56;;;7.15;100.00
70930;BME280;58588;48.102;19.682;2023-04-15T02:44:37;98448.25;;;7.17;100.00
70930;BME280;58588;48.102;19.682;2023-04-15T02:47:39;98446.38;;;7.17;100.00
70930;BME280;58588;48.102;19.682;2023-04-15T02:50:41;98444.66;;;7.31;100.00
70930;BME280;58588;48.102;19.682;2023-04-15T02:53:43;98445.13;;;7.35;100.00
70930;BME280;58588;48.102;19.682;2023-04-15T02:56:46;98432.94;;;7.32;100.00
70930;BME280;58588;48.102;19.682;2023-04-15T02:59:49;98431.72;;;7.35;100.00
70930;BME280;58588;48.102;19.682;2023-04-15T03:02:56;98433.78;;;7.33;100.00
70930;BME280;58588;48.102;19.682;2023-04-15T03:05:58;98436.56;;;7.24;100.00
70930;BME280;58588;48.102;19.682;2023-04-15T03:09:00;98433.06;;;7.24;100.00
70930;BME280;58588;48.102;19.682;2023-04-15T03:12:04;98434.91;;;7.23;100.00
70930;BME280;58588;48.102;19.682;2023-04-15T03:15:08;98435.66;;;6.96;100.00
70930;BME280;58588;48.102;19.682;2023-04-15T03:18:10;98437.66;;;7.09;100.00
70930;BME280;58588;48.102;19.682;2023-04-15T03:21:12;98442.06;;;6.80;100.00
70930;BME280;58588;48.102;19.682;2023-04-15T03:24:14;98435.75;;;6.88;100.00
70930;BME280;58588;48.102;19.682;2023-04-15T03:27:17;98430.94;;;6.98;100.00
70930;BME280;58588;48.102;19.682;2023-04-15T03:30:19;98423.72;;;6.98;100.00
70930;BME280;58588;48.102;19.682;2023-04-15T03:33:22;98421.53;;;6.87;100.00
70930;BME280;58588;48.102;19.682;2023-04-15T03:36:24;98421.22;;;6.97;100.00
70930;BME280;58588;48.102;19.682;2023-04-15T03:39:26;98423.84;;;6.90;100.00
70930;BME280;58588;48.102;19.682;2023-04-15T03:42:30;98424.75;;;6.83;100.00
70930;BME280;58588;48.102;19.682;2023-04-15T03:45:32;98424.06;;;6.74;100.00
70930;BME280;58588;48.102;19.682;2023-04-15T03:48:34;98414.66;;;6.63;100.00
70930;BME280;58588;48.102;19.682;2023-04-15T03:51:36;98419.47;;;6.53;100.00
70930;BME280;58588;48.102;19.682;2023-04-15T03:54:38;98437.44;;;6.59;100.00
70930;BME280;58588;48.102;19.682;2023-04-15T03:57:41;98435.25;;;6.63;100.00
70930;BME280;58588;48.102;19.682;2023-04-15T04:00:43;98439.13;;;6.01;100.00
70930;BME280;58588;48.102;19.682;2023-04-15T04:03:46;98450.72;;;5.94;100.00
70930;BME280;58588;48.102;19.682;2023-04-15T04:06:48;98452.03;;;5.98;100.00
70930;BME280;58588;48.102;19.682;2023-04-15T04:09:50;98452.44;;;5.86;100.00
70930;BME280;58588;48.102;19.682;2023-04-15T04:12:53;98458.09;;;5.92;100.00
70930;BME280;58588;48.102;19.682;2023-04-15T04:15:55;98461.56;;;6.00;100.00
70930;BME280;58588;48.102;19.682;2023-04-15T04:18:57;98460.31;;;5.88;100.00
70930;BME280;58588;48.102;19.682;2023-04-15T04:21:59;98460.31;;;5.88;100.00
70930;BME280;58588;48.102;19.682;2023-04-15T04:25:01;98460.13;;;5.89;100.00
70930;BME280;58588;48.102;19.682;2023-04-15T04:28:05;98459.44;;;6.10;100.00
70930;BME280;58588;48.102;19.682;2023-04-15T04:31:07;98458.25;;;6.13;100.00
70930;BME280;58588;48.102;19.682;2023-04-15T04:34:09;98468.94;;;6.28;100.00
70930;BME280;58588;48.102;19.682;2023-04-15T04:37:11;98460.19;;;6.19;100.00
70930;BME280;58588;48.102;19.682;2023-04-15T04:40:13;98468.00;;;6.35;100.00
70930;BME280;58588;48.102;19.682;2023-04-15T04:43:17;98469.50;;;6.53;100.00
70930;BME280;58588;48.102;19.682;2023-04-15T04:46:19;98469.50;;;6.67;100.00
70930;BME280;58588;48.102;19.682;2023-04-15T04:49:21;98467.81;;;6.81;100.00
70930;BME280;58588;48.102;19.682;2023-04-15T04:52:23;98470.13;;;6.84;100.00
70930;BME280;58588;48.102;19.682;2023-04-15T04:55:25;98465.75;;;6.98;100.00
70930;BME280;58588;48.102;19.682;2023-04-15T04:58:28;98467.69;;;7.04;100.00
70930;BME280;58588;48.102;19.682;2023-04-15T05:01:31;98469.25;;;6.98;100.00
70930;BME280;58588;48.102;19.682;2023-04-15T05:04:33;98472.84;;;7.06;100.00
70930;BME280;58588;48.102;19.682;2023-04-15T05:07:35;98464.59;;;7.07;100.00
70930;BME280;58588;48.102;19.682;2023-04-15T05:10:37;98472.22;;;7.04;100.00
70930;BME280;58588;48.102;19.682;2023-04-15T05:13:40;98473.75;;;7.13;100.00
70930;BME280;58588;48.102;19.682;2023-04-15T05:16:42;98475.13;;;7.45;100.00
70930;BME280;58588;48.102;19.682;2023-04-15T05:19:44;98474.75;;;7.69;100.00
70930;BME280;58588;48.102;19.682;2023-04-15T05:22:46;98472.22;;;7.89;100.00
70930;BME280;58588;48.102;19.682;2023-04-15T05:25:48;98477.66;;;7.96;100.00
70930;BME280;58588;48.102;19.682;2023-04-15T05:28:52;98471.91;;;7.99;100.00
70930;BME280;58588;48.102;19.682;2023-04-15T05:31:54;98469.28;;;8.05;100.00
70930;BME280;58588;48.102;19.682;2023-04-15T05:34:57;98470.66;;;8.01;100.00
70930;BME280;58588;48.102;19.682;2023-04-15T05:37:59;98479.75;;;8.00;100.00
70930;BME280;58588;48.102;19.682;2023-04-15T05:41:01;98477.44;;;7.97;100.00
70930;BME280;58588;48.102;19.682;2023-04-15T05:44:05;98488.78;;;7.93;100.00
70930;BME280;58588;48.102;19.682;2023-04-15T05:47:07;98480.72;;;7.93;100.00
70930;BME280;58588;48.102;19.682;2023-04-15T05:50:10;98491.41;;;8.14;100.00
70930;BME280;58588;48.102;19.682;2023-04-15T05:53:12;98485.22;;;8.14;100.00
70930;BME280;58588;48.102;19.682;2023-04-15T05:56:14;98484.22;;;8.21;100.00
70930;BME280;58588;48.102;19.682;2023-04-15T05:59:18;98482.25;;;8.30;100.00
70930;BME280;58588;48.102;19.682;2023-04-15T06:02:20;98492.28;;;8.43;100.00
70930;BME280;58588;48.102;19.682;2023-04-15T06:05:22;98485.53;;;8.53;100.00
70930;BME280;58588;48.102;19.682;2023-04-15T06:08:24;98480.97;;;8.54;100.00
70930;BME280;58588;48.102;19.682;2023-04-15T06:11:27;98483.50;;;8.62;100.00
70930;BME280;58588;48.102;19.682;2023-04-15T06:14:30;98481.94;;;8.81;100.00
70930;BME280;58588;48.102;19.682;2023-04-15T06:17:32;98483.22;;;8.92;100.00
70930;BME280;58588;48.102;19.682;2023-04-15T06:20:35;98477.69;;;9.00;100.00
70930;BME280;58588;48.102;19.682;2023-04-15T06:23:37;98482.06;;;9.07;100.00
70930;BME280;58588;48.102;19.682;2023-04-15T06:26:40;98491.22;;;9.20;100.00
70930;BME280;58588;48.102;19.682;2023-04-15T06:29:44;98476.38;;;9.37;100.00
70930;BME280;58588;48.102;19.682;2023-04-15T06:32:46;98477.00;;;9.46;100.00
70930;BME280;58588;48.102;19.682;2023-04-15T06:35:48;98476.84;;;9.67;100.00
70930;BME280;58588;48.102;19.682;2023-04-15T06:38:50;98477.06;;;9.92;100.00
70930;BME280;58588;48.102;19.682;2023-04-15T06:41:52;98482.00;;;9.88;100.00
70930;BME280;58588;48.102;19.682;2023-04-15T06:44:56;98481.81;;;10.16;100.00
70930;BME280;58588;48.102;19.682;2023-04-15T06:47:58;98479.94;;;10.50;100.00
70930;BME280;58588;48.102;19.682;2023-04-15T06:51:00;98476.16;;;10.71;100.00
70930;BME280;58588;48.102;19.682;2023-04-15T06:54:03;98473.00;;;10.87;100.00
70930;BME280;58588;48.102;19.682;2023-04-15T06:57:06;98474.03;;;10.86;100.00
70930;BME280;58588;48.102;19.682;2023-04-15T07:00:11;98477.31;;;10.95;100.00
70930;BME280;58588;48.102;19.682;2023-04-15T07:03:13;98479.38;;;10.99;100.00
70930;BME280;58588;48.102;19.682;2023-04-15T07:06:15;98478.78;;;10.97;100.00
70930;BME280;58588;48.102;19.682;2023-04-15T07:09:17;98478.47;;;11.19;100.00
70930;BME280;58588;48.102;19.682;2023-04-15T07:12:20;98485.66;;;11.32;100.00
70930;BME280;58588;48.102;19.682;2023-04-15T07:15:23;98482.97;;;11.70;100.00
70930;BME280;58588;48.102;19.682;2023-04-15T07:18:25;98476.66;;;11.83;100.00
70930;BME280;58588;48.102;19.682;2023-04-15T07:21:27;98482.28;;;12.31;100.00
70930;BME280;58588;48.102;19.682;2023-04-15T07:24:29;98481.94;;;12.46;100.00
70930;BME280;58588;48.102;19.682;2023-04-15T07:27:32;98484.00;;;12.69;100.00
70930;BME280;58588;48.102;19.682;2023-04-15T07:30:35;98479.66;;;12.86;100.00
70930;BME280;58588;48.102;19.682;2023-04-15T07:33:37;98486.78;;;12.62;100.00
70930;BME280;58588;48.102;19.682;2023-04-15T07:36:39;98479.72;;;12.61;100.00
70930;BME280;58588;48.102;19.682;2023-04-15T07:39:41;98491.66;;;12.72;100.00
70930;BME280;58588;48.102;19.682;2023-04-15T07:42:45;98500.13;;;12.57;100.00
70930;BME280;58588;48.102;19.682;2023-04-15T07:45:50;98498.16;;;12.46;100.00
70930;BME280;58588;48.102;19.682;2023-04-15T07:48:52;98492.22;;;12.37;100.00
70930;BME280;58588;48.102;19.682;2023-04-15T07:51:54;98500.53;;;12.11;100.00
70930;BME280;58588;48.102;19.682;2023-04-15T07:54:57;98493.66;;;11.90;100.00
70930;BME280;58588;48.102;19.682;2023-04-15T07:57:59;98497.63;;;11.80;100.00
70930;BME280;58588;48.102;19.682;2023-04-15T08:01:03;98507.41;;;11.75;100.00
70930;BME280;58588;48.102;19.682;2023-04-15T08:04:05;98507.41;;;11.75;100.00
70930;BME280;58588;48.102;19.682;2023-04-15T08:07:07;98506.41;;;11.69;100.00
70930;BME280;58588;48.102;19.682;2023-04-15T08:10:09;98514.66;;;11.88;100.00
70930;BME280;58588;48.102;19.682;2023-04-15T08:13:12;98507.41;;;12.13;100.00
70930;BME280;58588;48.102;19.682;2023-04-15T08:16:18;98505.78;;;12.30;100.00
70930;BME280;58588;48.102;19.682;2023-04-15T08:19:20;98508.31;;;12.50;100.00
70930;BME280;58588;48.102;19.682;2023-04-15T08:22:23;98510.59;;;12.53;100.00
70930;BME280;58588;48.102;19.682;2023-04-15T08:25:25;98513.31;;;12.47;100.00
70930;BME280;58588;48.102;19.682;2023-04-15T08:28:28;98506.50;;;12.19;100.00
70930;BME280;58588;48.102;19.682;2023-04-15T08:31:31;98508.88;;;12.09;100.00
70930;BME280;58588;48.102;19.682;2023-04-15T08:34:33;98510.00;;;11.57;100.00
70930;BME280;58588;48.102;19.682;2023-04-15T08:37:35;98519.72;;;11.26;100.00
70930;BME280;58588;48.102;19.682;2023-04-15T08:40:40;98527.91;;;11.06;100.00
70930;BME280;58588;48.102;19.682;2023-04-15T08:43:49;98537.88;;;11.06;100.00
70930;BME280;58588;48.102;19.682;2023-04-15T08:46:55;98543.66;;;11.03;100.00
70930;BME280;58588;48.102;19.682;2023-04-15T08:49:57;98535.13;;;11.19;100.00
70930;BME280;58588;48.102;19.682;2023-04-15T08:53:00;98536.84;;;11.45;100.00
70930;BME280;58588;48.102;19.682;2023-04-15T08:56:04;98535.34;;;12.00;100.00
70930;BME280;58588;48.102;19.682;2023-04-15T08:59:09;98542.16;;;12.53;100.00
70930;BME280;58588;48.102;19.682;2023-04-15T09:02:13;98535.66;;;12.61;100.00
70930;BME280;58588;48.102;19.682;2023-04-15T09:05:15;98534.34;;;12.45;100.00
70930;BME280;58588;48.102;19.682;2023-04-15T09:08:17;98529.16;;;12.43;100.00
70930;BME280;58588;48.102;19.682;2023-04-15T09:11:20;98526.41;;;12.50;100.00
70930;BME280;58588;48.102;19.682;2023-04-15T09:14:22;98534.56;;;13.05;100.00
70930;BME280;58588;48.102;19.682;2023-04-15T09:17:26;98531.88;;;13.72;100.00
70930;BME280;58588;48.102;19.682;2023-04-15T09:20:28;98533.38;;;13.86;100.00
70930;BME280;58588;48.102;19.682;2023-04-15T09:23:31;98540.59;;;14.04;100.00
70930;BME280;58588;48.102;19.682;2023-04-15T09:26:34;98545.88;;;13.20;100.00
70930;BME280;58588;48.102;19.682;2023-04-15T09:29:36;98551.88;;;13.04;100.00
70930;BME280;58588;48.102;19.682;2023-04-15T09:32:49;98556.81;;;13.07;100.00
70930;BME280;58588;48.102;19.682;2023-04-15T09:35:59;98562.03;;;13.08;100.00
70930;BME280;58588;48.102;19.682;2023-04-15T09:39:02;98560.38;;;12.64;100.00
70930;BME280;58588;48.102;19.682;2023-04-15T09:42:05;98564.28;;;12.68;100.00
70930;BME280;58588;48.102;19.682;2023-04-15T09:45:07;98563.63;;;12.23;100.00
70930;BME280;58588;48.102;19.682;2023-04-15T09:48:19;98557.75;;;12.32;100.00
70930;BME280;58588;48.102;19.682;2023-04-15T09:51:33;98560.44;;;12.32;100.00
70930;BME280;58588;48.102;19.682;2023-04-15T09:54:36;98556.16;;;12.50;100.00
70930;BME280;58588;48.102;19.682;2023-04-15T09:57:39;98553.47;;;12.68;100.00
70930;BME280;58588;48.102;19.682;2023-04-15T10:00:42;98558.88;;;12.68;100.00
70930;BME280;58588;48.102;19.682;2023-04-15T10:03:46;98559.47;;;12.70;100.00
70930;BME280;58588;48.102;19.682;2023-04-15T10:06:48;98560.28;;;12.96;100.00
70930;BME280;58588;48.102;19.682;2023-04-15T10:09:51;98557.09;;;12.37;100.00
70930;BME280;58588;48.102;19.682;2023-04-15T10:12:53;98553.38;;;12.56;100.00
70930;BME280;58588;48.102;19.682;2023-04-15T10:15:57;98556.34;;;12.73;100.00
70930;BME280;58588;48.102;19.682;2023-04-15T10:19:01;98553.09;;;13.08;100.00
70930;BME280;58588;48.102;19.682;2023-04-15T10:22:05;98553.91;;;12.90;100.00
70930;BME280;58588;48.102;19.682;2023-04-15T10:25:08;98550.28;;;12.96;100.00
70930;BME280;58588;48.102;19.682;2023-04-15T10:28:11;98552.59;;;12.93;100.00
70930;BME280;58588;48.102;19.682;2023-04-15T10:31:14;98547.34;;;13.16;100.00
70930;BME280;58588;48.102;19.682;2023-04-15T10:34:19;98538.19;;;12.99;100.00
70930;BME280;58588;48.102;19.682;2023-04-15T10:37:33;98547.53;;;13.21;100.00
70930;BME280;58588;48.102;19.682;2023-04-15T10:40:35;98545.13;;;13.80;99.15
70930;BME280;58588;48.102;19.682;2023-04-15T10:43:43;98535.88;;;14.88;99.00
70930;BME280;58588;48.102;19.682;2023-04-15T10:46:46;98531.47;;;14.98;87.26
70930;BME280;58588;48.102;19.682;2023-04-15T10:49:50;98536.09;;;15.50;88.70
70930;BME280;58588;48.102;19.682;2023-04-15T10:52:53;98541.63;;;15.15;88.94
70930;BME280;58588;48.102;19.682;2023-04-15T10:55:56;98535.31;;;15.38;86.33
70930;BME280;58588;48.102;19.682;2023-04-15T10:58:59;98532.78;;;16.33;89.82
70930;BME280;58588;48.102;19.682;2023-04-15T11:02:03;98541.16;;;17.21;82.79
70930;BME280;58588;48.102;19.682;2023-04-15T11:05:07;98537.72;;;16.20;77.04
70930;BME280;58588;48.102;19.682;2023-04-15T11:08:10;98539.78;;;15.84;78.87
70930;BME280;58588;48.102;19.682;2023-04-15T11:11:13;98535.13;;;15.68;76.88
70930;BME280;58588;48.102;19.682;2023-04-15T11:14:15;98537.28;;;15.54;76.81
70930;BME280;58588;48.102;19.682;2023-04-15T11:17:26;98541.34;;;15.80;75.51
70930;BME280;58588;48.102;19.682;2023-04-15T11:20:31;98533.75;;;16.27;73.72
70930;BME280;58588;48.102;19.682;2023-04-15T11:23:35;98531.78;;;16.40;78.94
70930;BME280;58588;48.102;19.682;2023-04-15T11:26:38;98528.56;;;16.26;72.61
70930;BME280;58588;48.102;19.682;2023-04-15T11:29:40;98521.03;;;15.71;73.12
70930;BME280;58588;48.102;19.682;2023-04-15T11:32:42;98513.59;;;15.95;71.77
70930;BME280;58588;48.102;19.682;2023-04-15T11:35:45;98518.53;;;15.81;68.85
70930;BME280;58588;48.102;19.682;2023-04-15T11:38:47;98519.69;;;15.85;69.50
70930;BME280;58588;48.102;19.682;2023-04-15T11:41:49;98523.09;;;15.52;74.08
70930;BME280;58588;48.102;19.682;2023-04-15T11:45:05;98520.59;;;15.10;75.87
70930;BME280;58588;48.102;19.682;2023-04-15T11:48:10;98529.03;;;14.50;79.70
70930;BME280;58588;48.102;19.682;2023-04-15T11:51:14;98559.16;;;14.30;83.55
70930;BME280;58588;48.102;19.682;2023-04-15T11:54:18;98609.38;;;13.18;90.60
70930;BME280;58588;48.102;19.682;2023-04-15T11:57:20;98609.78;;;11.90;100.00
70930;BME280;58588;48.102;19.682;2023-04-15T12:00:22;98609.69;;;10.87;100.00
70930;BME280;58588;48.102;19.682;2023-04-15T12:03:25;98614.69;;;10.57;100.00
70930;BME280;58588;48.102;19.682;2023-04-15T12:06:32;98617.56;;;10.42;100.00
70930;BME280;58588;48.102;19.682;2023-04-15T12:09:36;98620.47;;;10.40;100.00
70930;BME280;58588;48.102;19.682;2023-04-15T12:12:40;98624.78;;;10.22;100.00
70930;BME280;58588;48.102;19.682;2023-04-15T12:15:42;98623.38;;;10.45;100.00
70930;BME280;58588;48.102;19.682;2023-04-15T12:18:45;98616.56;;;10.56;100.00
70930;BME280;58588;48.102;19.682;2023-04-15T12:21:49;98622.34;;;10.66;100.00
70930;BME280;58588;48.102;19.682;2023-04-15T12:24:54;98620.66;;;10.72;100.00
70930;BME280;58588;48.102;19.682;2023-04-15T12:27:57;98620.22;;;11.08;100.00
70930;BME280;58588;48.102;19.682;2023-04-15T12:31:00;98605.91;;;11.66;100.00
70930;BME280;58588;48.102;19.682;2023-04-15T12:34:07;98609.28;;;11.99;100.00
70930;BME280;58588;48.102;19.682;2023-04-15T12:37:11;98606.69;;;12.49;100.00
70930;BME280;58588;48.102;19.682;2023-04-15T12:40:13;98612.69;;;13.20;100.00
70930;BME280;58588;48.102;19.682;2023-04-15T12:43:16;98601.03;;;13.74;100.00
70930;BME280;58588;48.102;19.682;2023-04-15T12:46:18;98601.06;;;14.04;100.00
70930;BME280;58588;48.102;19.682;2023-04-15T12:49:20;98606.09;;;13.52;100.00
70930;BME280;58588;48.102;19.682;2023-04-15T12:52:24;98618.47;;;13.78;100.00
70930;BME280;58588;48.102;19.682;2023-04-15T12:55:26;98618.63;;;13.83;100.00
70930;BME280;58588;48.102;19.682;2023-04-15T12:58:28;98613.81;;;13.67;100.00
70930;BME280;58588;48.102;19.682;2023-04-15T13:01:30;98617.25;;;13.44;100.00
70930;BME280;58588;48.102;19.682;2023-04-15T13:04:32;98610.69;;;13.33;100.00
70930;BME280;58588;48.102;19.682;2023-04-15T13:07:36;98620.69;;;12.90;100.00
70930;BME280;58588;48.102;19.682;2023-04-15T13:10:38;98627.72;;;12.72;100.00
70930;BME280;58588;48.102;19.682;2023-04-15T13:13:41;98625.06;;;12.66;100.00
70930;BME280;58588;48.102;19.682;2023-04-15T13:16:44;98618.81;;;12.65;100.00
70930;BME280;58588;48.102;19.682;2023-04-15T13:19:46;98620.31;;;12.61;100.00
70930;BME280;58588;48.102;19.682;2023-04-15T13:22:51;98632.88;;;12.49;100.00
70930;BME280;58588;48.102;19.682;2023-04-15T13:25:53;98632.41;;;12.83;100.00
70930;BME280;58588;48.102;19.682;2023-04-15T13:28:55;98630.44;;;13.16;100.00
70930;BME280;58588;48.102;19.682;2023-04-15T13:31:57;98634.34;;;13.20;97.95
70930;BME280;58588;48.102;19.682;2023-04-15T13:35:00;98640.91;;;13.67;98.68
70930;BME280;58588;48.102;19.682;2023-04-15T13:38:04;98640.41;;;14.07;99.08
70930;BME280;58588;48.102;19.682;2023-04-15T13:41:06;98639.97;;;14.10;96.63
70930;BME280;58588;48.102;19.682;2023-04-15T13:44:08;98634.03;;;14.43;96.81
70930;BME280;58588;48.102;19.682;2023-04-15T13:47:11;98629.78;;;14.65;97.25
70930;BME280;58588;48.102;19.682;2023-04-15T13:50:15;98635.44;;;14.99;93.23
70930;BME280;58588;48.102;19.682;2023-04-15T13:53:19;98633.38;;;15.76;87.40
70930;BME280;58588;48.102;19.682;2023-04-15T13:56:21;98636.69;;;16.07;86.51
70930;BME280;58588;48.102;19.682;2023-04-15T13:59:23;98630.38;;;16.01;84.61
70930;BME280;58588;48.102;19.682;2023-04-15T14:02:25;98634.28;;;15.94;83.32
70930;BME280;58588;48.102;19.682;2023-04-15T14:05:27;98628.88;;;15.82;84.02
70930;BME280;58588;48.102;19.682;2023-04-15T14:08:30;98629.56;;;15.89;86.60
70930;BME280;58588;48.102;19.682;2023-04-15T14:11:32;98633.22;;;14.96;87.66
70930;BME280;58588;48.102;19.682;2023-04-15T14:14:36;98645.19;;;14.23;90.12
70930;BME280;58588;48.102;19.682;2023-04-15T14:17:38;98643.00;;;13.83;90.89
70930;BME280;58588;48.102;19.682;2023-04-15T14:20:41;98645.16;;;13.63;95.85
70930;BME280;58588;48.102;19.682;2023-04-15T14:23:45;98648.81;;;13.87;98.33
70930;BME280;58588;48.102;19.682;2023-04-15T14:26:47;98645.72;;;13.83;95.95
70930;BME280;58588;48.102;19.682;2023-04-15T14:29:49;98645.59;;;14.08;94.31
70930;BME280;58588;48.102;19.682;2023-04-15T14:32:51;98644.25;;;14.48;96.19
70930;BME280;58588;48.102;19.682;2023-04-15T14:35:53;98641.66;;;14.23;96.58
70930;BME280;58588;48.102;19.682;2023-04-15T14:38:58;98635.84;;;14.19;92.81
70930;BME280;58588;48.102;19.682;2023-04-15T14:42:00;98639.97;;;14.10;93.67
70930;BME280;58588;48.102;19.682;2023-04-15T14:45:02;98646.06;;;14.05;90.58
70930;BME280;58588;48.102;19.682;2023-04-15T14:48:05;98651.41;;;14.12;91.81
70930;BME280;58588;48.102;19.682;2023-04-15T14:51:09;98658.31;;;14.08;96.54
70930;BME280;58588;48.102;19.682;2023-04-15T14:54:12;98655.44;;;13.73;98.13
70930;BME280;58588;48.102;19.682;2023-04-15T14:57:14;98661.00;;;13.59;95.25
70930;BME280;58588;48.102;19.682;2023-04-15T15:00:17;98665.22;;;13.55;96.24
70930;BME280;58588;48.102;19.682;2023-04-15T15:03:19;98661.31;;;13.51;97.52
70930;BME280;58588;48.102;19.682;2023-04-15T15:06:21;98667.16;;;13.48;99.95
70930;BME280;58588;48.102;19.682;2023-04-15T15:09:25;98669.66;;;13.68;96.71
70930;BME280;58588;48.102;19.682;2023-04-15T15:12:27;98673.47;;;13.42;97.01
70930;BME280;58588;48.102;19.682;2023-04-15T15:15:29;98673.41;;;13.49;98.19
70930;BME280;58588;48.102;19.682;2023-04-15T15:18:32;98670.09;;;13.28;99.74
70930;BME280;58588;48.102;19.682;2023-04-15T15:21:34;98676.88;;;13.37;99.23
70930;BME280;58588;48.102;19.682;2023-04-15T15:24:38;98678.97;;;13.54;100.00
70930;BME280;58588;48.102;19.682;2023-04-15T15:27:40;98692.66;;;13.16;100.00
70930;BME280;58588;48.102;19.682;2023-04-15T15:30:42;98695.94;;;12.99;97.50
70930;BME280;58588;48.102;19.682;2023-04-15T15:33:44;98697.81;;;12.99;98.54
70930;BME280;58588;48.102;19.682;2023-04-15T15:36:47;98696.16;;;12.73;99.79
70930;BME280;58588;48.102;19.682;2023-04-15T15:39:51;98699.97;;;12.58;100.00
70930;BME280;58588;48.102;19.682;2023-04-15T15:42:53;98706.66;;;12.56;100.00
70930;BME280;58588;48.102;19.682;2023-04-15T15:45:55;98714.94;;;12.61;100.00
70930;BME280;58588;48.102;19.682;2023-04-15T15:48:57;98705.69;;;12.75;98.89